Time;durP1;ratioP1;P1;durP2;ratioP2;P2;SDS_P1;SDS_P2;PMS_P1;PMS_P2;Temp;Humidity;BMP_temperature;BMP_pressure;BME280_temperature;BME280_humidity;BME280_pressure;Samples;Min_cycle;Max_cycle;Signal;HPM_P1;HPM_P2
2021/07/17 00:02:05;;;;;;;1.92;0.60;;;18.30;95.00;;;21.59;82.18;102455.41;5036547;27;98793;-73
2021/07/17 00:04:34;;;;;;;1.27;0.85;;;18.30;95.10;;;21.64;81.67;102461.50;5035542;27;96932;-73
2021/07/17 00:07:04;;;;;;;8.80;1.13;;;18.20;95.20;;;21.61;82.48;102462.13;5034062;27;97167;-73
2021/07/17 00:09:33;;;;;;;3.63;2.65;;;18.20;95.20;;;21.62;82.70;102466.50;5035182;27;97732;-73
2021/07/17 00:12:07;;;;;;;3.60;0.63;;;18.20;95.30;;;21.69;81.75;102469.47;5034072;27;99644;-73
2021/07/17 00:14:36;;;;;;;0.98;0.95;;;18.20;95.30;;;21.58;81.76;102464.72;5039916;27;96823;-73
2021/07/17 00:17:05;;;;;;;0.98;0.95;;;18.20;95.30;;;21.67;82.09;102469.00;5033655;27;97756;-73
2021/07/17 00:19:34;;;;;;;20.95;5.28;;;18.20;95.30;;;21.64;81.70;102466.94;5034150;27;97059;-73
2021/07/17 00:22:04;;;;;;;0.47;0.47;;;18.20;95.40;;;21.69;81.46;102469.47;5036773;27;97767;-73
2021/07/17 00:24:33;;;;;;;5.53;2.97;;;18.20;95.40;;;21.63;82.59;102470.00;5038423;27;97191;-73
2021/07/17 00:27:03;;;;;;;3.05;1.40;;;18.20;95.40;;;21.58;81.85;102459.25;5037243;27;97214;-73
2021/07/17 00:29:37;;;;;;;1.15;1.08;;;18.20;95.40;;;21.57;81.78;102460.38;5045424;27;97001;-73
2021/07/17 00:32:07;;;;;;;0.55;0.52;;;18.20;95.40;;;21.56;82.40;102459.56;5015265;27;97263;-73
2021/07/17 00:34:36;;;;;;;6.75;0.98;;;18.20;95.40;;;21.54;82.25;102455.59;5018522;27;97919;-73
2021/07/17 00:37:05;;;;;;;0.45;0.20;;;18.20;95.40;;;21.54;82.38;102455.59;5036463;27;96859;-73
2021/07/17 00:39:34;;;;;;;0.73;0.35;;;18.20;95.40;;;21.56;81.59;102465.03;5039212;27;96841;-73
2021/07/17 00:42:05;;;;;;;0.20;0.20;;;18.10;95.40;;;21.52;82.02;102461.38;5029514;27;97967;-73
2021/07/17 00:44:36;;;;;;;0.75;0.75;;;18.10;95.40;;;21.43;81.57;102460.66;5033214;27;96917;-73
2021/07/17 00:47:07;;;;;;;31.15;2.17;;;18.10;95.40;;;21.36;81.83;102457.66;5034655;27;96972;-72
2021/07/17 00:49:37;;;;;;;12.90;2.22;;;18.00;95.30;;;21.22;81.92;102465.28;5033847;27;97336;-72
2021/07/17 00:52:06;;;;;;;0.70;0.52;;;18.00;95.20;;;21.12;81.75;102459.44;5032904;27;97888;-72
2021/07/17 00:54:36;;;;;;;1.85;1.08;;;18.00;95.20;;;21.06;82.98;102468.94;5034187;27;97326;-72
2021/07/17 00:57:09;;;;;;;1.60;0.57;;;17.90;95.10;;;21.07;81.94;102465.88;5039317;27;96654;-72
2021/07/17 00:59:43;;;;;;;0.17;0.17;;;17.90;95.10;;;21.10;81.71;102469.88;5037296;27;96996;-72
2021/07/17 01:02:14;;;;;;;8.60;1.35;;;17.80;95.10;;;21.06;81.62;102469.75;5038125;27;99829;-72
2021/07/17 01:04:43;;;;;;;0.98;0.73;;;17.70;95.10;;;20.96;81.88;102463.88;5056867;27;97567;-72
2021/07/17 01:07:12;;;;;;;1.48;0.88;;;17.70;95.10;;;20.93;81.97;102464.53;5027167;27;97251;-72
2021/07/17 01:09:41;;;;;;;1.13;0.82;;;17.70;95.20;;;20.94;82.31;102466.13;5035641;27;97034;-72
2021/07/17 01:12:10;;;;;;;0.82;0.82;;;17.60;95.20;;;20.97;81.67;102466.25;5035746;27;97124;-72
2021/07/17 01:14:41;;;;;;;2.83;1.17;;;17.60;95.20;;;20.91;81.82;102467.56;5035303;27;97045;-72
2021/07/17 01:17:10;;;;;;;0.00;0.00;;;17.60;95.20;;;20.87;81.92;102480.25;5045804;27;97257;-72
2021/07/17 01:19:42;;;;;;;0.30;0.30;;;17.60;95.10;;;20.77;81.37;102475.16;5031071;27;98395;-74
2021/07/17 01:22:12;;;;;;;0.98;0.88;;;17.50;95.00;;;20.76;81.58;102472.75;5035867;27;98022;-72
2021/07/17 01:24:44;;;;;;;3.72;1.00;;;17.50;95.00;;;20.57;82.39;102466.09;5033889;27;96833;-72
2021/07/17 01:27:15;;;;;;;1.80;0.63;;;17.40;94.90;;;20.58;81.05;102468.50;5037471;27;96858;-72
2021/07/17 01:29:44;;;;;;;1.65;0.85;;;17.40;94.90;;;20.54;81.15;102466.75;5039377;27;97136;-72
2021/07/17 01:32:14;;;;;;;0.45;0.20;;;17.30;94.80;;;20.50;81.45;102465.81;5032415;27;98493;-72
2021/07/17 01:34:43;;;;;;;0.10;0.10;;;17.30;94.80;;;20.38;81.67;102461.03;5043380;27;97627;-72
2021/07/17 01:37:13;;;;;;;1.45;0.75;;;17.20;94.80;;;20.42;81.61;102464.72;5035538;27;96862;-72
2021/07/17 01:39:42;;;;;;;7.20;1.83;;;17.10;94.80;;;20.42;81.33;102462.00;5043671;27;97326;-72
2021/07/17 01:42:11;;;;;;;3.17;2.17;;;17.20;94.90;;;20.28;81.16;102457.88;5039789;27;98118;-72
2021/07/17 01:44:45;;;;;;;2.20;0.47;;;17.10;94.80;;;20.19;81.98;102455.16;5036832;27;97637;-72
2021/07/17 01:47:15;;;;;;;2.95;1.98;;;17.10;94.80;;;20.19;81.82;102454.38;5020220;27;96883;-72
2021/07/17 01:49:44;;;;;;;16.48;0.88;;;17.00;94.80;;;20.21;82.02;102452.13;5035362;27;97034;-72
2021/07/17 01:52:14;;;;;;;0.40;0.40;;;17.00;94.80;;;20.13;81.44;102445.56;5038873;27;97791;-72
2021/07/17 01:54:43;;;;;;;1.13;1.10;;;16.90;94.80;;;20.11;81.30;102444.28;5033933;27;96746;-72
2021/07/17 01:57:11;;;;;;;8.88;2.15;;;16.90;94.80;;;20.12;81.08;102448.63;5040048;27;96805;-72
2021/07/17 01:59:45;;;;;;;13.45;1.13;;;16.80;94.80;;;20.07;80.83;102443.34;5037720;27;96841;-72
2021/07/17 02:02:14;;;;;;;9.63;1.45;;;16.80;94.80;;;20.06;80.77;102444.47;5037875;27;96854;-72
2021/07/17 02:04:43;;;;;;;1.20;0.80;;;16.80;94.80;;;20.00;81.33;102451.19;5038761;27;97902;-72
2021/07/17 02:07:13;;;;;;;1.60;1.45;;;16.70;94.80;;;19.95;81.32;102449.41;5037776;27;96971;-72
2021/07/17 02:09:42;;;;;;;0.35;0.35;;;16.70;94.80;;;19.94;81.45;102441.59;5027165;27;98320;-72
2021/07/17 02:12:11;;;;;;;0.82;0.50;;;16.70;94.90;;;19.87;81.36;102441.28;5030756;27;96968;-72
2021/07/17 02:14:42;;;;;;;0.10;0.10;;;16.70;94.90;;;19.79;81.08;102447.50;5036844;27;97110;-72
2021/07/17 02:17:11;;;;;;;0.47;0.45;;;16.60;94.80;;;19.71;81.92;102454.59;5025331;27;96990;-72
2021/07/17 02:19:39;;;;;;;0.80;0.52;;;16.60;94.80;;;19.74;81.59;102453.13;5044900;27;97064;-72
2021/07/17 02:22:08;;;;;;;0.40;0.40;;;16.60;94.80;;;19.69;81.27;102445.13;5041525;27;97838;-72
2021/07/17 02:24:38;;;;;;;0.50;0.50;;;16.50;94.80;;;19.65;81.60;102441.47;5034408;27;97106;-72
2021/07/17 02:27:07;;;;;;;4.18;0.77;;;16.50;94.80;;;19.59;82.07;102448.19;5021320;27;96870;-72
2021/07/17 02:29:36;;;;;;;0.65;0.65;;;16.40;94.80;;;19.53;81.80;102455.69;5027623;27;96980;-72
2021/07/17 02:32:06;;;;;;;0.10;0.10;;;16.40;94.80;;;19.56;82.01;102446.13;5035850;27;97980;-72
2021/07/17 02:34:35;;;;;;;0.75;0.75;;;16.40;94.80;;;19.53;81.88;102452.19;5037465;27;97835;-72
2021/07/17 02:37:04;;;;;;;8.35;2.08;;;16.40;94.90;;;19.52;81.71;102456.81;5039186;27;97019;-72
2021/07/17 02:39:33;;;;;;;4.47;2.17;;;16.40;95.00;;;19.48;81.93;102453.13;5019967;27;97086;-72
2021/07/17 02:42:06;;;;;;;6.32;1.02;;;16.30;94.90;;;19.52;81.51;102453.31;5037623;27;97825;-74
2021/07/17 02:44:35;;;;;;;0.75;0.57;;;16.30;94.90;;;19.48;82.30;102453.13;5038778;27;97680;-72
2021/07/17 02:47:04;;;;;;;1.05;0.73;;;16.30;94.90;;;19.47;82.18;102450.72;5040465;27;96999;-72
2021/07/17 02:49:33;;;;;;;1.23;0.75;;;16.30;95.00;;;19.41;82.24;102454.72;5044668;27;96834;-72
2021/07/17 02:52:04;;;;;;;0.08;0.08;;;16.30;95.00;;;19.38;81.83;102453.47;5038831;27;98095;-72
2021/07/17 02:54:33;;;;;;;0.13;0.13;;;16.20;94.70;;;19.42;82.25;102453.59;5039266;27;97692;-72
2021/07/17 02:57:04;;;;;;;4.28;1.48;;;16.20;94.90;;;19.47;81.04;102453.44;5038543;27;96904;-72
2021/07/17 02:59:34;;;;;;;1.48;1.13;;;16.20;94.90;;;19.43;81.84;102457.94;5037244;27;97067;-72
2021/07/17 03:02:04;;;;;;;0.43;0.43;;;16.20;94.90;;;19.40;81.24;102455.84;5036113;27;98571;-72
2021/07/17 03:04:34;;;;;;;13.35;1.95;;;16.10;94.90;;;19.31;80.97;102449.63;5039982;27;97334;-72
2021/07/17 03:07:05;;;;;;;0.57;0.57;;;16.10;94.80;;;19.31;81.44;102460.47;5023740;27;97132;-72
2021/07/17 03:09:34;;;;;;;0.13;0.13;;;16.10;94.90;;;19.33;81.77;102450.09;5039497;27;97466;-72
2021/07/17 03:12:07;;;;;;;1.92;1.30;;;16.00;94.90;;;19.25;81.39;102451.69;5037938;27;98050;-72
2021/07/17 03:14:37;;;;;;;1.55;1.15;;;16.00;94.90;;;19.21;82.00;102444.47;5054165;27;96834;-72
2021/07/17 03:17:06;;;;;;;7.35;1.05;;;15.90;94.90;;;19.22;81.88;102457.75;5036692;27;96913;-72
2021/07/17 03:19:34;;;;;;;0.25;0.25;;;15.90;95.00;;;19.24;81.78;102446.56;5043981;27;96938;-72
2021/07/17 03:22:04;;;;;;;1.00;1.00;;;15.90;95.00;;;19.24;81.43;102450.06;5045335;27;97123;-72
2021/07/17 03:24:34;;;;;;;2.95;0.70;;;15.90;95.10;;;19.25;82.47;102446.25;5039569;27;96871;-72
2021/07/17 03:27:03;;;;;;;6.60;1.85;;;16.00;95.20;;;19.32;82.52;102453.94;5037807;27;97651;-72
2021/07/17 03:29:32;;;;;;;5.40;2.88;;;16.00;95.20;;;19.38;82.69;102453.47;5037410;27;96982;-72
2021/07/17 03:32:04;;;;;;;1.25;0.32;;;16.00;95.30;;;19.42;81.91;102457.16;5036255;27;98149;-72
2021/07/17 03:34:33;;;;;;;22.70;2.83;;;16.00;95.40;;;19.47;81.89;102458.88;5035217;27;100386;-72
2021/07/17 03:37:04;;;;;;;0.50;0.50;;;16.00;95.40;;;19.54;81.69;102459.22;5025187;27;98578;-72
2021/07/17 03:39:33;;;;;;;12.27;0.80;;;16.10;95.40;;;19.56;82.36;102468.66;5036763;27;97103;-72
2021/07/17 03:42:03;;;;;;;0.52;0.45;;;16.10;95.40;;;19.59;82.23;102464.50;5033933;27;97902;-72
2021/07/17 03:44:32;;;;;;;0.20;0.20;;;16.10;95.40;;;19.53;82.17;102463.84;5041959;27;98935;-72
2021/07/17 03:47:04;;;;;;;0.00;0.00;;;16.10;95.40;;;19.59;82.49;102456.34;5045816;27;96919;-72
2021/07/17 03:49:33;;;;;;;2.33;0.85;;;16.20;95.50;;;19.58;83.01;102465.63;5034364;27;97465;-72
2021/07/17 03:52:04;;;;;;;1.55;0.68;;;16.20;95.50;;;19.72;82.44;102468.97;5035222;27;98153;-72
2021/07/17 03:54:33;;;;;;;0.73;0.55;;;16.20;95.50;;;19.73;82.22;102457.78;5037267;27;97666;-72
2021/07/17 03:57:04;;;;;;;0.75;0.50;;;16.20;95.50;;;19.73;82.13;102468.66;5024899;27;96980;-72
2021/07/17 03:59:32;;;;;;;1.40;1.30;;;16.30;95.50;;;19.78;82.06;102468.50;5038992;27;96948;-72
2021/07/17 04:02:03;;;;;;;0.28;0.20;;;16.30;95.50;;;19.76;81.74;102461.75;5036813;27;97909;-72
2021/07/17 04:04:39;;;;;;;5.63;1.33;;;16.30;95.50;;;19.78;82.20;102462.25;5015561;27;99928;-72
2021/07/17 04:07:08;;;;;;;2.63;1.35;;;16.30;95.50;;;19.87;81.54;102463.84;5032544;27;96784;-72
2021/07/17 04:09:38;;;;;;;0.45;0.45;;;16.40;95.40;;;19.88;81.02;102470.09;5035435;27;97177;-72
2021/07/17 04:12:08;;;;;;;3.22;0.93;;;16.40;95.40;;;19.80;81.62;102462.72;5023070;27;98101;-72
2021/07/17 04:14:38;;;;;;;2.00;1.08;;;16.40;95.30;;;19.83;81.21;102468.31;5018631;27;96742;-72
2021/07/17 04:17:08;;;;;;;8.75;0.95;;;16.50;95.30;;;19.90;81.86;102474.06;5039764;27;96739;-72
2021/07/17 04:19:37;;;;;;;9.48;1.40;;;16.50;95.20;;;20.00;81.23;102472.94;5033402;27;97174;-72
2021/07/17 04:22:05;;;;;;;1.00;0.77;;;16.60;95.20;;;20.07;81.01;102474.09;5048715;27;96955;-72
2021/07/17 04:24:34;;;;;;;5.05;1.95;;;16.60;95.10;;;20.06;80.82;102471.69;5043598;27;97649;-72
2021/07/17 04:27:05;;;;;;;3.30;1.55;;;16.60;95.00;;;20.10;80.43;102473.44;5035031;27;96902;-72
2021/07/17 04:29:34;;;;;;;3.97;2.90;;;16.70;95.00;;;20.11;80.95;102461.44;5035232;27;97481;-72
2021/07/17 04:32:07;;;;;;;2.30;0.63;;;16.70;94.90;;;20.21;81.41;102460.31;5034192;27;98276;-72
2021/07/17 04:34:36;;;;;;;0.13;0.13;;;16.80;94.90;;;20.28;81.13;102461.41;5031618;27;98617;-72
2021/07/17 04:37:06;;;;;;;0.13;0.13;;;16.90;94.90;;;20.44;80.62;102462.47;5036038;27;96822;-72
2021/07/17 04:39:35;;;;;;;18.40;4.18;;;16.90;94.80;;;20.53;80.74;102465.94;5032502;27;96895;-73
2021/07/17 04:42:05;;;;;;;2.72;0.85;;;17.00;94.70;;;20.67;80.29;102461.09;5042610;27;97015;-72
2021/07/17 04:44:34;;;;;;;0.43;0.43;;;17.10;94.70;;;20.72;79.95;102456.28;5038524;27;97370;-72
2021/07/17 04:47:04;;;;;;;1.15;1.00;;;17.20;94.90;;;20.77;80.69;102461.53;5040347;27;97316;-72
2021/07/17 04:49:35;;;;;;;0.70;0.60;;;17.30;94.60;;;20.84;80.55;102461.84;5032439;27;97565;-72
2021/07/17 04:52:06;;;;;;;2.83;1.08;;;17.30;94.50;;;20.92;80.50;102452.81;5023722;27;97974;-72
2021/07/17 04:54:35;;;;;;;3.67;0.77;;;17.30;94.50;;;21.00;79.76;102462.06;5030171;27;96758;-73
2021/07/17 04:57:05;;;;;;;0.43;0.43;;;17.40;94.40;;;21.15;80.16;102456.03;5032343;27;99377;-72
2021/07/17 04:59:33;;;;;;;0.28;0.28;;;17.40;94.30;;;21.19;79.96;102462.44;5032538;27;97086;-72
2021/07/17 05:02:04;;;;;;;0.13;0.10;;;17.50;94.30;;;21.38;80.04;102452.69;5035434;27;97094;-72
2021/07/17 05:04:36;;;;;;;0.22;0.22;;;17.60;94.30;;;21.47;79.67;102464.31;5030618;27;98594;-72
2021/07/17 05:07:05;;;;;;;0.13;0.13;;;17.70;94.20;;;21.55;78.99;102457.19;5018695;27;97104;-72
2021/07/17 05:09:33;;;;;;;0.88;0.65;;;17.80;94.10;;;21.61;79.13;102464.84;5052236;27;101006;-72
2021/07/17 05:12:06;;;;;;;9.75;2.58;;;17.90;94.10;;;21.68;79.06;102469.78;5036422;27;97088;-72
2021/07/17 05:14:35;;;;;;;16.45;0.90;;;18.00;94.10;;;21.71;79.69;102469.13;5035402;27;96832;-73
2021/07/17 05:17:06;;;;;;;17.05;2.97;;;18.10;94.00;;;21.76;79.31;102467.00;5039534;27;96951;-73
2021/07/17 05:19:36;;;;;;;5.60;3.13;;;18.10;93.90;;;21.89;79.46;102467.84;5032682;27;96995;-72
2021/07/17 05:22:05;;;;;;;1.17;0.52;;;18.20;93.90;;;22.05;78.75;102469.59;5033952;27;98392;-73
2021/07/17 05:24:36;;;;;;;1.13;0.57;;;18.30;93.80;;;22.26;78.68;102470.34;5033893;27;96743;-72
2021/07/17 05:27:05;;;;;;;3.13;1.45;;;18.40;94.00;;;22.45;78.28;102474.19;5036343;27;97394;-72
2021/07/17 05:29:33;;;;;;;0.40;0.40;;;18.60;93.60;;;22.67;77.71;102465.56;5035056;27;97541;-72
2021/07/17 05:32:03;;;;;;;1.40;0.93;;;18.70;93.50;;;22.93;77.44;102473.41;5019654;27;97056;-72
2021/07/17 05:34:32;;;;;;;3.28;0.82;;;18.90;93.30;;;23.18;76.33;102464.06;5021093;27;96922;-72
2021/07/17 05:37:04;;;;;;;0.88;0.85;;;19.10;93.10;;;23.35;76.14;102470.06;5035443;27;96881;-72
2021/07/17 05:39:33;;;;;;;0.90;0.90;;;19.20;93.00;;;23.69;75.32;102485.13;5040030;27;99782;-72
2021/07/17 05:42:04;;;;;;;0.20;0.17;;;19.50;92.80;;;23.95;74.83;102481.63;5037254;27;98067;-72
2021/07/17 05:44:34;;;;;;;8.93;1.40;;;19.70;92.60;;;24.00;74.71;102481.38;5037248;27;97055;-72
2021/07/17 05:47:03;;;;;;;22.52;0.98;;;19.90;92.40;;;24.13;74.80;102482.94;5038054;27;98024;-72
2021/07/17 05:49:32;;;;;;;1.05;0.95;;;20.00;92.30;;;24.44;74.18;102485.72;5018707;27;96891;-73
2021/07/17 05:52:00;;;;;;;2.33;1.23;;;20.20;92.10;;;24.77;73.13;102491.66;5039601;27;98056;-72
2021/07/17 05:54:33;;;;;;;9.70;0.63;;;20.50;91.90;;;24.94;73.29;102496.78;5035258;27;97921;-72
2021/07/17 05:57:03;;;;;;;0.52;0.52;;;20.60;91.70;;;25.01;72.79;102499.69;5038005;27;97223;-72
2021/07/17 05:59:32;;;;;;;0.40;0.40;;;20.80;91.50;;;25.35;72.34;102496.19;5043741;27;97224;-73
2021/07/17 06:02:00;;;;;;;1.02;0.52;;;21.10;91.50;;;25.75;71.54;102491.16;5039623;27;96837;-72
2021/07/17 06:04:33;;;;;;;1.10;0.30;;;21.40;91.10;;;25.87;71.61;102497.34;5022272;27;97362;-72
2021/07/17 06:07:03;;;;;;;0.10;0.10;;;21.60;90.90;;;27.57;67.00;102498.66;5039800;27;96820;-72
2021/07/17 06:09:33;;;;;;;0.50;0.40;;;22.50;90.60;;;28.11;65.89;102490.66;5034654;27;96811;-72
2021/07/17 06:12:06;;;;;;;0.17;0.17;;;23.20;88.50;;;29.70;62.10;102483.22;5037195;27;97988;-73
2021/07/17 06:14:36;;;;;;;5.78;1.08;;;24.30;85.70;;;31.85;57.35;102489.91;5035098;27;97010;-73
2021/07/17 06:17:11;;;;;;;4.47;0.85;;;25.90;82.20;;;33.45;53.84;102500.91;5027656;27;96915;-73
2021/07/17 06:19:41;;;;;;;0.32;0.32;;;27.30;78.30;;;34.39;52.68;102480.16;5039586;27;97607;-73
2021/07/17 06:22:11;;;;;;;16.10;1.02;;;28.40;77.10;;;36.34;49.54;102483.81;5040662;27;97893;-73
2021/07/17 06:24:42;;;;;;;1.65;0.40;;;29.90;74.30;;;38.91;45.65;102482.94;5038298;27;97638;-74
2021/07/17 06:27:14;;;;;;;0.52;0.43;;;31.90;71.40;;;39.55;45.71;102473.75;5036854;27;96664;-73
2021/07/17 06:29:43;;;;;;;8.70;0.63;;;33.10;69.40;;;41.24;43.23;102483.09;5034995;27;96901;-73
2021/07/17 06:32:12;;;;;;;0.20;0.20;;;34.30;67.90;;;42.03;43.09;102472.09;5045168;27;98270;-74
2021/07/17 06:34:41;;;;;;;3.95;0.60;;;35.50;66.80;;;42.72;42.83;102472.66;5039307;27;97350;-74
2021/07/17 06:37:10;;;;;;;15.15;0.93;;;36.40;65.60;;;44.01;41.77;102467.56;5038060;27;97146;-74
2021/07/17 06:39:39;;;;;;;3.33;0.65;;;37.40;65.10;;;45.16;40.90;102467.00;5034976;27;96805;-74
2021/07/17 06:42:09;;;;;;;1.30;0.70;;;38.40;64.30;;;45.66;41.20;102456.91;5038367;27;97819;-74
2021/07/17 06:44:38;;;;;;;0.85;0.40;;;39.20;63.80;;;46.58;40.29;102466.50;5020368;27;96907;-74
2021/07/17 06:47:09;;;;;;;0.10;0.10;;;39.90;63.20;;;47.34;39.81;102446.03;5042274;27;97147;-74
2021/07/17 06:49:39;;;;;;;0.17;0.17;;;40.70;62.90;;;47.83;39.37;102450.13;5042200;27;96920;-75
2021/07/17 06:52:07;;;;;;;2.83;1.58;;;41.30;62.40;;;48.21;39.73;102450.03;5035382;27;96861;-75
2021/07/17 06:54:36;;;;;;;18.15;1.25;;;41.70;61.80;;;48.65;39.34;102447.78;5036701;27;98213;-72
2021/07/17 06:57:05;;;;;;;1.17;0.45;;;42.10;61.90;;;49.13;38.68;102444.41;5038979;27;97208;-72
2021/07/17 06:59:35;;;;;;;1.98;0.70;;;42.40;61.80;;;49.61;38.96;102444.47;5035506;27;96823;-72
2021/07/17 07:02:05;;;;;;;0.28;0.28;;;42.80;61.90;;;50.07;38.85;102441.44;5032376;27;97880;-72
2021/07/17 07:04:35;;;;;;;0.00;0.00;;;43.20;61.70;;;50.40;38.12;102441.78;5033188;27;97304;-72
2021/07/17 07:07:04;;;;;;;5.40;0.57;;;43.50;61.30;;;50.63;37.34;102452.38;5038665;27;97315;-72
2021/07/17 07:09:33;;;;;;;8.60;0.60;;;43.60;60.80;;;50.74;38.02;102454.31;5035164;27;97045;-72
2021/07/17 07:12:04;;;;;;;0.65;0.65;;;43.70;61.00;;;51.13;37.33;102378.09;5033880;27;96937;-73
2021/07/17 07:14:34;;;;;;;3.45;0.05;;;43.80;61.70;;;51.62;37.35;102372.78;5031128;27;96943;-72
2021/07/17 07:17:03;;;;;;;1.52;0.93;;;44.10;61.80;;;51.91;36.69;102397.44;5038423;27;100018;-72
2021/07/17 07:19:32;;;;;;;0.38;0.38;;;44.40;61.60;;;52.23;36.83;102396.00;5039909;27;96992;-72
2021/07/17 07:22:03;;;;;;;0.13;0.13;;;44.50;61.70;;;52.39;36.44;102407.09;5038580;27;96741;-72
2021/07/17 07:24:32;;;;;;;3.55;0.25;;;44.50;62.20;;;52.77;36.00;102408.28;5033344;27;97109;-72
2021/07/17 07:27:03;;;;;;;0.90;0.85;;;44.60;62.20;;;53.02;35.84;102423.09;5039982;27;96665;-73
2021/07/17 07:29:34;;;;;;;0.55;0.55;;;44.80;62.00;;;53.22;35.62;102420.19;5036533;27;97168;-72
2021/07/17 07:32:05;;;;;;;2.22;0.38;;;44.90;62.00;;;53.42;35.49;102433.75;5032524;27;97692;-72
2021/07/17 07:34:34;;;;;;;0.55;0.47;;;44.80;61.70;;;53.55;34.47;102442.28;5034686;27;98058;-73
2021/07/17 07:37:03;;;;;;;12.23;0.55;;;44.80;61.40;;;53.45;34.43;102426.91;5036611;27;96814;-74
2021/07/17 07:39:33;;;;;;;2.95;0.85;;;44.60;61.50;;;53.68;34.47;102456.53;5035983;27;97958;-73
2021/07/17 07:42:05;;;;;;;6.80;0.82;;;44.50;62.00;;;53.72;34.34;102451.19;5019168;27;97936;-73
2021/07/17 07:44:36;;;;;;;1.25;0.55;;;44.50;62.50;;;54.15;33.77;102434.81;5035933;27;98245;-73
2021/07/17 07:47:06;;;;;;;0.57;0.47;;;44.50;62.70;;;54.33;33.30;102442.38;5035910;27;96897;-73
2021/07/17 07:49:35;;;;;;;14.50;1.00;;;44.60;62.40;;;53.54;34.62;102452.22;5034339;27;97156;-73
2021/07/17 07:52:05;;;;;;;5.85;0.60;;;44.30;63.40;;;54.01;33.67;102449.88;5032786;27;97440;-74
2021/07/17 07:54:35;;;;;;;3.40;0.77;;;44.20;63.40;;;54.11;32.95;102447.22;5035275;27;98112;-74
2021/07/17 07:57:08;;;;;;;5.68;0.50;;;44.20;63.10;;;54.15;33.37;102436.94;5041485;27;96985;-73
2021/07/17 07:59:39;;;;;;;0.10;0.10;;;44.10;62.80;;;54.67;31.72;102442.88;5022376;27;96859;-73
2021/07/17 08:02:09;;;;;;;6.03;1.65;;;44.10;63.10;;;54.51;32.33;102429.84;5034545;27;97453;-73
2021/07/17 08:04:38;;;;;;;0.43;0.43;;;44.00;64.20;;;53.85;33.03;102442.50;5017731;27;97926;-73
2021/07/17 08:07:08;;;;;;;0.10;0.10;;;43.90;64.10;;;54.36;32.27;102429.00;5031022;27;96893;-73
2021/07/17 08:09:37;;;;;;;0.38;0.17;;;43.80;64.30;;;54.55;32.56;102430.22;5032237;27;96987;-73
2021/07/17 08:12:07;;;;;;;13.13;1.15;;;43.80;64.60;;;53.53;33.30;102438.41;5032047;27;97087;-73
2021/07/17 08:14:35;;;;;;;0.32;0.28;;;43.50;64.60;;;52.34;35.63;102445.22;5035611;27;97028;-72
2021/07/17 08:17:07;;;;;;;4.82;0.52;;;43.20;64.90;;;53.37;33.04;102431.81;5033984;27;97600;-72
2021/07/17 08:19:37;;;;;;;0.10;0.10;;;42.90;65.20;;;53.48;33.20;102443.00;5042819;27;97303;-74
2021/07/17 08:22:05;;;;;;;0.95;0.55;;;42.80;65.80;;;53.97;32.54;102437.97;5037185;27;96961;-74
2021/07/17 08:24:34;;;;;;;5.43;0.55;;;42.80;66.30;;;53.85;33.40;102435.97;5032608;27;99992;-74
2021/07/17 08:27:05;;;;;;;0.10;0.10;;;42.80;65.50;;;53.30;33.36;102432.53;5033487;27;97185;-73
2021/07/17 08:29:34;;;;;;;0.07;0.07;;;42.70;65.70;;;51.63;37.12;102429.44;5034310;27;97027;-74
2021/07/17 08:32:07;;;;;;;1.27;0.32;;;42.30;66.10;;;51.99;35.37;102432.72;5035724;27;99156;-74
2021/07/17 08:34:36;;;;;;;1.90;0.13;;;41.80;67.10;;;51.22;37.04;102428.38;5031676;27;96806;-74
2021/07/17 08:37:05;;;;;;;3.00;0.47;;;41.60;67.90;;;51.93;34.92;102432.00;5033635;27;96715;-73
2021/07/17 08:39:34;;;;;;;0.57;0.20;;;41.30;67.70;;;52.53;33.63;102434.34;5021199;27;97897;-73
2021/07/17 08:42:04;;;;;;;1.65;0.38;;;41.20;67.70;;;52.49;34.23;102428.19;5032966;27;98739;-73
2021/07/17 08:44:34;;;;;;;3.45;0.55;;;41.20;67.80;;;49.03;40.66;102418.31;5030116;27;96844;-74
2021/07/17 08:47:06;;;;;;;1.48;0.10;;;41.00;67.80;;;51.07;36.54;102419.56;5019747;27;97844;-74
2021/07/17 08:49:37;;;;;;;0.30;0.10;;;40.60;68.70;;;51.52;35.78;102429.69;5034743;27;96983;-74
2021/07/17 08:52:07;;;;;;;0.68;0.35;;;40.60;69.20;;;48.98;41.24;102421.94;5034261;27;96927;-73
2021/07/17 08:54:39;;;;;;;0.50;0.38;;;40.70;69.30;;;44.79;50.49;102427.75;5035194;27;97015;-73
2021/07/17 08:57:12;;;;;;;0.10;0.10;;;40.00;70.30;;;45.61;47.37;102420.78;5036074;27;97008;-73
2021/07/17 08:59:42;;;;;;;0.32;0.32;;;39.10;71.10;;;46.81;43.20;102436.88;5022457;27;97151;-73
2021/07/17 09:02:13;;;;;;;0.10;0.10;;;38.50;72.40;;;48.20;40.94;102424.94;5018138;27;97033;-73
2021/07/17 09:04:45;;;;;;;0.08;0.03;;;38.30;72.40;;;45.24;46.81;102434.13;5034597;27;98429;-74
2021/07/17 09:07:21;;;;;;;1.90;0.45;;;38.20;72.30;;;48.15;41.24;102434.28;5039234;27;97022;-74
2021/07/17 09:09:53;;;;;;;0.05;0.05;;;38.20;72.70;;;47.36;42.16;102437.75;5044306;27;96909;-74
2021/07/17 09:12:25;;;;;;;0.30;0.30;;;38.10;72.10;;;47.40;42.32;102434.63;5042736;27;96854;-73
2021/07/17 09:14:54;;;;;;;7.28;0.45;;;38.00;72.90;;;47.76;41.77;102433.59;5036495;27;97712;-73
2021/07/17 09:17:28;;;;;;;0.30;0.20;;;37.90;73.50;;;48.41;40.54;102429.03;5039707;27;96698;-73
2021/07/17 09:20:01;;;;;;;0.00;0.00;;;38.00;73.60;;;46.15;45.40;102430.16;5037825;27;97515;-74
2021/07/17 09:22:36;;;;;;;0.77;0.73;;;38.20;73.80;;;47.33;43.02;102433.13;5023970;27;97939;-73
2021/07/17 09:25:10;;;;;;;0.43;0.22;;;38.20;73.90;;;47.23;43.23;102436.69;5041231;27;97699;-74
2021/07/17 09:27:39;;;;;;;0.05;0.05;;;38.10;73.90;;;46.73;44.40;102432.97;5024075;27;96955;-73
2021/07/17 09:30:32;;;;;;;0.10;0.10;;;38.00;74.10;;;46.30;45.29;102425.88;5039066;27;97534;-73
2021/07/17 09:33:06;;;;;;;1.13;0.55;;;37.80;73.60;;;47.00;43.65;102435.13;5034244;27;97942;-72
2021/07/17 09:35:38;;;;;;;1.48;0.35;;;37.70;74.10;;;46.83;43.62;102439.97;5038543;27;97989;-72
2021/07/17 09:38:08;;;;;;;;;;;37.60;73.80;;;46.97;43.57;102428.41;5042306;27;97223;-72
2021/07/17 09:40:53;;;;;;;0.10;0.10;;;37.50;72.80;;;46.59;43.65;102425.47;5038618;27;96728;-73
2021/07/17 09:43:40;;;;;;;2.40;0.20;;;37.30;73.40;;;46.22;44.38;102421.94;5028263;27;99543;-73
2021/07/17 09:46:23;;;;;;;0.35;0.32;;;37.00;74.10;;;45.61;45.71;102417.19;5025409;27;96906;-73
2021/07/17 09:48:55;;;;;;;;;;;;;;;45.36;46.54;102418.00;5039532;27;96920;-73
2021/07/17 09:51:28;;;;;;;0.00;0.00;;;36.60;74.40;;;44.82;47.80;102423.91;5038077;27;97068;-73
2021/07/17 09:54:00;;;;;;;6.22;0.30;;;36.50;76.40;;;44.53;48.10;102421.25;5028503;27;100187;-74
2021/07/17 09:56:35;;;;;;;4.03;0.73;;;36.40;77.40;;;44.26;49.15;102418.81;5040522;27;96959;-73
2021/07/17 09:59:07;;;;;;;1.83;0.08;;;36.40;77.20;;;43.92;49.69;102423.22;5028719;27;96793;-73
2021/07/17 10:01:39;;;;;;;0.75;0.75;;;36.30;77.40;;;43.50;51.19;102408.69;5034870;27;97046;-73
2021/07/17 10:04:12;;;;;;;0.47;0.08;;;36.20;77.70;;;43.05;52.87;102417.63;5038070;27;97009;-73
2021/07/17 10:06:45;;;;;;;0.00;0.00;;;36.20;78.10;;;42.54;54.02;102422.00;5041807;27;96810;-73
2021/07/17 10:09:35;;;;;;;0.15;0.15;;;36.10;78.80;;;42.15;55.65;102416.78;5033255;27;96787;-73
2021/07/17 10:12:09;;;;;;;0.10;0.10;;;36.10;78.50;;;41.85;56.67;102420.69;5036996;27;97744;-73
2021/07/17 10:14:40;;;;;;;0.22;0.03;;;36.10;79.60;;;41.27;58.06;102413.88;5033351;27;97879;-73
2021/07/17 10:17:13;;;;;;;2.58;0.85;;;36.00;79.40;;;41.14;58.53;102414.03;5039469;27;97889;-75
2021/07/17 10:19:44;;;;;;;1.00;0.30;;;35.90;79.70;;;40.83;59.32;102407.00;5051655;27;96869;-74
2021/07/17 10:22:13;;;;;;;0.60;0.35;;;35.80;79.50;;;40.61;59.83;102418.41;5036332;27;96996;-74
2021/07/17 10:24:42;;;;;;;0.00;0.00;;;35.70;80.10;;;40.50;60.69;102411.69;5034839;27;98282;-75
2021/07/17 10:27:10;;;;;;;0.00;0.00;;;35.60;80.50;;;40.35;61.16;102410.72;5040313;27;98117;-75